createdAt,value
2019-03-04T00:00:50.631Z,3.97
2019-03-04T00:03:20.410Z,3.70
2019-03-04T00:05:50.354Z,3.70
2019-03-04T00:08:20.218Z,3.77
2019-03-04T00:10:50.020Z,3.97
2019-03-04T00:13:19.881Z,3.77
2019-03-04T00:15:49.720Z,4.10
2019-03-04T00:18:19.552Z,3.80
2019-03-04T00:20:49.324Z,3.57
2019-03-04T00:23:19.054Z,3.33
2019-03-04T00:25:48.841Z,3.87
2019-03-04T00:28:18.564Z,3.57
2019-03-04T00:30:48.322Z,3.60
2019-03-04T00:33:18.086Z,3.10
2019-03-04T00:35:47.859Z,3.07
2019-03-04T00:38:17.623Z,2.60
2019-03-04T00:40:47.407Z,3.17
2019-03-04T00:43:17.271Z,3.53
2019-03-04T00:45:47.025Z,4.57
2019-03-04T00:48:16.789Z,4.93
2019-03-04T00:50:46.518Z,3.77
2019-03-04T00:53:16.271Z,3.13
2019-03-04T00:55:46.000Z,2.83
2019-03-04T00:58:15.755Z,3.10
2019-03-04T01:00:45.480Z,2.93
2019-03-04T01:03:15.356Z,3.27
2019-03-04T01:05:45.117Z,3.03
2019-03-04T01:08:14.910Z,2.67
2019-03-04T01:10:44.660Z,2.27
2019-03-04T01:13:14.420Z,2.53
2019-03-04T01:15:44.177Z,3.03
2019-03-04T01:18:13.894Z,2.90
2019-03-04T01:20:43.648Z,2.77
2019-03-04T01:23:13.374Z,3.13
2019-03-04T01:25:43.132Z,2.73
2019-03-04T01:28:12.854Z,2.47
2019-03-04T01:30:42.638Z,3.30
2019-03-04T01:33:12.364Z,3.47
2019-03-04T01:35:42.122Z,3.00
2019-03-04T01:38:11.876Z,3.37
2019-03-04T01:40:41.658Z,2.57
2019-03-04T01:43:11.423Z,3.70
2019-03-04T01:45:41.190Z,3.03
2019-03-04T01:48:10.948Z,3.10
2019-03-04T01:50:40.675Z,3.40
2019-03-04T01:53:10.424Z,3.33
2019-03-04T01:55:40.140Z,2.57
2019-03-04T01:58:09.898Z,2.97
2019-03-04T02:00:39.612Z,2.30
2019-03-04T02:03:09.402Z,2.90
2019-03-04T02:05:39.132Z,2.50
2019-03-04T02:08:08.895Z,3.37
2019-03-04T02:10:38.655Z,3.63
2019-03-04T02:13:08.385Z,3.30
2019-03-04T02:15:38.150Z,3.27
2019-03-04T02:18:07.874Z,2.53
2019-03-04T02:20:37.662Z,3.60
2019-03-04T02:23:07.425Z,3.20
2019-03-04T02:25:49.515Z,2.90
2019-03-04T02:28:19.240Z,3.20
2019-03-04T02:30:48.995Z,2.40
2019-03-04T02:33:18.755Z,3.30
2019-03-04T02:35:48.616Z,2.17
2019-03-04T02:38:18.574Z,3.90
2019-03-04T02:40:48.339Z,3.50
2019-03-04T02:43:18.098Z,3.07
2019-03-04T02:45:47.816Z,2.80
2019-03-04T02:48:17.583Z,2.63
2019-03-04T02:50:47.307Z,2.53
2019-03-04T02:53:17.073Z,2.60
2019-03-04T02:55:46.830Z,3.57
2019-03-04T02:58:16.603Z,2.60
2019-03-04T03:00:46.330Z,2.90
2019-03-04T03:03:16.093Z,2.70
2019-03-04T03:05:45.841Z,2.60
2019-03-04T03:08:15.599Z,1.93
2019-03-04T03:10:45.360Z,2.10
2019-03-04T03:13:15.087Z,2.40
2019-03-04T03:15:44.850Z,2.20
2019-03-04T03:18:14.568Z,2.30
2019-03-04T03:20:44.332Z,3.03
2019-03-04T03:23:14.056Z,3.40
2019-03-04T03:25:43.822Z,3.60
2019-03-04T03:28:13.545Z,2.40
2019-03-04T03:30:43.335Z,2.60
2019-03-04T03:33:13.104Z,2.70
2019-03-04T03:35:42.853Z,2.97
2019-03-04T03:38:12.585Z,5.70
2019-03-04T03:40:42.339Z,3.20
2019-03-04T03:43:12.062Z,2.90
2019-03-04T03:45:41.816Z,3.00
2019-03-04T03:48:11.543Z,2.60
2019-03-04T03:50:41.301Z,2.80
2019-03-04T03:53:11.026Z,2.40
2019-03-04T03:55:40.771Z,2.80
2019-03-04T03:58:10.496Z,3.50
2019-03-04T04:00:40.263Z,3.87
2019-03-04T04:03:09.979Z,3.30
2019-03-04T04:05:39.747Z,3.20
2019-03-04T04:08:09.463Z,2.67
2019-03-04T04:10:39.225Z,3.00
2019-03-04T04:13:08.979Z,3.13
2019-03-04T04:15:38.835Z,3.20
2019-03-04T04:18:08.553Z,2.90
2019-03-04T04:20:38.333Z,2.90
2019-03-04T04:23:08.050Z,2.80
2019-03-04T04:25:37.796Z,2.97
2019-03-04T04:28:08.858Z,4.10
2019-03-04T04:30:39.746Z,3.53
2019-03-04T04:33:09.509Z,3.83
2019-03-04T04:35:39.301Z,5.83
2019-03-04T04:38:09.062Z,3.30
2019-03-04T04:40:38.823Z,2.70
2019-03-04T04:43:08.580Z,3.00
2019-03-04T04:45:38.311Z,3.03
2019-03-04T04:48:08.096Z,3.63
2019-03-04T04:50:37.823Z,2.97
2019-03-04T04:53:07.601Z,4.00
2019-03-04T04:55:37.326Z,4.83
2019-03-04T04:58:07.089Z,5.17
2019-03-04T05:00:36.850Z,23.83
2019-03-04T05:03:06.612Z,11.50
2019-03-04T05:05:36.413Z,6.23
2019-03-04T05:08:06.123Z,4.23
2019-03-04T05:10:35.888Z,4.10
2019-03-04T05:13:05.617Z,4.73
2019-03-04T05:15:35.404Z,3.70
2019-03-04T05:18:05.143Z,7.70
2019-03-04T05:20:34.928Z,7.07
2019-03-04T05:23:04.801Z,3.73
2019-03-04T05:25:34.540Z,7.17
2019-03-04T05:28:04.308Z,6.00
2019-03-04T05:30:34.109Z,3.20
2019-03-04T05:33:03.856Z,3.10
2019-03-04T05:35:33.615Z,5.50
2019-03-04T05:38:03.380Z,5.53
2019-03-04T05:40:33.120Z,8.23
2019-03-04T05:43:02.892Z,20.57
2019-03-04T05:45:32.628Z,10.03
2019-03-04T05:48:02.394Z,9.40
2019-03-04T05:50:32.132Z,32.20
2019-03-04T05:53:01.894Z,22.20
2019-03-04T05:55:31.666Z,18.73
2019-03-04T05:58:01.455Z,19.03
2019-03-04T06:00:38.654Z,17.60
2019-03-04T06:03:14.518Z,11.93
2019-03-04T06:05:44.285Z,11.67
2019-03-04T06:08:17.455Z,15.43
2019-03-04T06:10:47.218Z,20.43
2019-03-04T06:13:17.017Z,16.93
2019-03-04T06:15:46.786Z,20.93
2019-03-04T06:18:16.551Z,23.47
2019-03-04T06:20:46.322Z,25.73
2019-03-04T06:23:16.258Z,37.77
2019-03-04T06:25:46.024Z,27.43
2019-03-04T06:28:15.762Z,17.47
2019-03-04T06:30:45.531Z,33.70
2019-03-04T06:33:15.263Z,36.53
2019-03-04T06:35:45.036Z,30.27
2019-03-04T06:38:14.781Z,37.30
2019-03-04T06:40:44.586Z,35.33
2019-03-04T06:43:14.325Z,33.80
2019-03-04T06:45:44.124Z,50.87
2019-03-04T06:48:14.153Z,21.67
2019-03-04T06:50:54.790Z,14.57
2019-03-04T06:53:45.968Z,36.23
2019-03-04T06:56:27.131Z,21.13
2019-03-04T06:59:06.030Z,27.10
2019-03-04T07:01:55.669Z,65.87
2019-03-04T07:04:31.523Z,41.60
2019-03-04T07:07:01.319Z,40.97
2019-03-04T07:09:31.201Z,19.03
2019-03-04T07:12:00.981Z,20.40
2019-03-04T07:14:30.757Z,16.03
2019-03-04T07:17:00.499Z,20.97
2019-03-04T07:19:30.376Z,18.33
2019-03-04T07:22:00.134Z,21.27
2019-03-04T07:24:29.932Z,27.20
2019-03-04T07:26:59.677Z,24.67
2019-03-04T07:29:38.494Z,13.37
2019-03-04T07:32:11.028Z,19.10
2019-03-04T07:34:43.579Z,10.90
2019-03-04T07:37:13.316Z,10.93
2019-03-04T07:39:45.871Z,13.77
2019-03-04T07:42:15.615Z,9.23
2019-03-04T07:44:45.550Z,13.93
2019-03-04T07:47:18.156Z,14.53
2019-03-04T07:49:50.746Z,11.43
2019-03-04T07:52:20.477Z,15.30
2019-03-04T07:54:50.459Z,12.40
2019-03-04T07:57:22.932Z,16.20
2019-03-04T07:59:55.689Z,15.73
2019-03-04T08:02:28.170Z,13.20
2019-03-04T08:04:57.979Z,14.87
2019-03-04T08:07:33.467Z,11.93
2019-03-04T08:10:28.918Z,15.37
2019-03-04T08:13:29.188Z,11.47
2019-03-04T08:15:59.085Z,14.03
2019-03-04T08:18:47.458Z,9.67
2019-03-04T08:21:17.255Z,9.97
2019-03-04T08:23:46.983Z,11.30
2019-03-04T08:26:16.763Z,8.80
2019-03-04T08:28:46.526Z,8.50
2019-03-04T08:31:19.148Z,9.90
2019-03-04T08:33:51.809Z,9.30
2019-03-04T08:36:24.387Z,12.93
2019-03-04T08:38:54.215Z,12.50
2019-03-04T08:41:24.191Z,12.00
2019-03-04T08:43:57.665Z,21.43
2019-03-04T08:46:28.199Z,16.67
2019-03-04T08:49:01.527Z,17.90
2019-03-04T08:51:49.011Z,18.03
2019-03-04T08:54:21.447Z,11.13
2019-03-04T08:56:51.256Z,9.33
2019-03-04T08:59:21.011Z,10.73
2019-03-04T09:01:50.817Z,13.47
2019-03-04T09:04:20.555Z,8.63
2019-03-04T09:06:53.029Z,8.60
2019-03-04T09:09:24.392Z,7.17
2019-03-04T09:12:11.736Z,9.03
2019-03-04T09:14:44.345Z,9.57
2019-03-04T09:17:14.349Z,9.30
2019-03-04T09:19:52.938Z,7.47
2019-03-04T09:22:41.350Z,9.47
2019-03-04T09:25:30.166Z,9.23
2019-03-04T09:27:54.942Z,6.57
2019-03-04T09:30:24.685Z,6.77
2019-03-04T09:32:57.208Z,6.97
2019-03-04T09:35:26.941Z,7.33
2019-03-04T09:37:56.739Z,12.33
2019-03-04T09:40:31.446Z,7.67
2019-03-04T09:43:05.078Z,5.70
2019-03-04T09:45:38.709Z,6.67
2019-03-04T09:48:21.420Z,6.80
2019-03-04T09:50:51.180Z,12.57
2019-03-04T09:53:20.954Z,6.83
2019-03-04T09:55:50.742Z,7.43
2019-03-04T09:58:23.276Z,7.57
2019-03-04T10:01:01.846Z,5.83
2019-03-04T10:04:02.376Z,5.43
2019-03-04T10:07:02.250Z,6.23
2019-03-04T10:10:16.094Z,7.50
2019-03-04T10:13:22.340Z,11.73
2019-03-04T10:16:18.782Z,7.63
2019-03-04T10:18:59.810Z,14.63
2019-03-04T10:21:41.627Z,6.93
2019-03-04T10:24:26.215Z,7.83
2019-03-04T10:27:08.370Z,5.57
2019-03-04T10:29:44.508Z,8.40
2019-03-04T10:32:23.449Z,7.50
2019-03-04T10:35:17.839Z,6.50
2019-03-04T10:37:53.731Z,8.43
2019-03-04T10:40:29.365Z,17.00
2019-03-04T10:43:04.933Z,14.53
2019-03-04T10:45:46.639Z,6.73
2019-03-04T10:48:16.435Z,5.00
2019-03-04T10:50:46.193Z,5.30
2019-03-04T10:53:15.973Z,5.20
2019-03-04T10:55:45.714Z,5.90
2019-03-04T10:58:15.480Z,5.30
2019-03-04T11:00:45.246Z,5.07
2019-03-04T11:03:15.011Z,4.37
2019-03-04T11:05:44.780Z,7.87
2019-03-04T11:08:14.503Z,5.83
2019-03-04T11:10:44.276Z,6.17
2019-03-04T11:13:14.097Z,5.40
2019-03-04T11:15:43.870Z,4.77
2019-03-04T11:18:13.589Z,3.80
2019-03-04T11:20:43.747Z,6.10
2019-03-04T11:23:15.158Z,5.20
2019-03-04T11:25:45.143Z,5.83
2019-03-04T11:28:14.881Z,7.13
2019-03-04T11:30:44.636Z,3.90
2019-03-04T11:33:14.373Z,7.00
2019-03-04T11:35:44.144Z,8.77
2019-03-04T11:38:40.864Z,7.97
2019-03-04T11:41:14.030Z,8.00
2019-03-04T11:43:45.371Z,8.20
2019-03-04T11:46:15.296Z,10.37
2019-03-04T11:48:46.616Z,10.30
2019-03-04T11:51:17.000Z,9.00
2019-03-04T11:53:49.202Z,7.27
2019-03-04T11:56:19.003Z,8.90
2019-03-04T11:58:48.748Z,9.57
2019-03-04T12:01:23.210Z,8.23
2019-03-04T12:03:53.919Z,8.37
2019-03-04T12:06:25.281Z,6.27
2019-03-04T12:08:55.004Z,6.53
2019-03-04T12:11:24.802Z,7.33
2019-03-04T12:13:54.557Z,5.80
2019-03-04T12:16:24.341Z,6.00
2019-03-04T12:18:54.125Z,6.80
2019-03-04T12:21:24.745Z,10.00
2019-03-04T12:23:54.532Z,6.70
2019-03-04T12:26:24.315Z,5.77
2019-03-04T12:28:54.121Z,6.73
2019-03-04T12:31:25.556Z,19.83
2019-03-04T12:33:55.226Z,41.80
2019-03-04T12:36:25.055Z,14.40
2019-03-04T12:38:54.816Z,19.97
2019-03-04T12:41:24.600Z,29.97
2019-03-04T12:43:54.376Z,13.17
2019-03-04T12:46:24.111Z,27.90
2019-03-04T12:48:53.881Z,27.43
2019-03-04T12:51:23.808Z,14.00
2019-03-04T12:53:53.597Z,20.20
2019-03-04T12:56:23.346Z,12.40
2019-03-04T12:58:53.126Z,11.63
2019-03-04T13:01:23.241Z,22.77
2019-03-04T13:03:55.786Z,15.80
2019-03-04T13:06:25.518Z,12.80
2019-03-04T13:08:55.291Z,21.03
2019-03-04T13:11:25.026Z,10.00
2019-03-04T13:13:54.804Z,12.03
2019-03-04T13:16:24.549Z,17.27
2019-03-04T13:18:54.327Z,12.00
2019-03-04T13:21:24.460Z,8.00
2019-03-04T13:23:56.858Z,6.20
2019-03-04T13:26:26.604Z,6.93
2019-03-04T13:28:56.476Z,5.50
2019-03-04T13:31:26.332Z,4.10
2019-03-04T13:33:56.144Z,4.50
2019-03-04T13:36:25.946Z,5.00
2019-03-04T13:38:55.720Z,5.67
2019-03-04T13:41:25.818Z,6.60
2019-03-04T13:43:55.613Z,6.33
2019-03-04T13:46:25.355Z,5.10
2019-03-04T13:48:56.710Z,5.97
2019-03-04T13:51:27.042Z,7.20
2019-03-04T13:53:56.853Z,7.10
2019-03-04T13:56:26.505Z,6.00
2019-03-04T13:58:56.357Z,7.50
2019-03-04T14:01:27.207Z,4.77
2019-03-04T14:03:57.007Z,6.27
2019-03-04T14:06:26.777Z,5.67
2019-03-04T14:08:56.573Z,7.83
2019-03-04T14:11:27.235Z,5.93
2019-03-04T14:13:57.087Z,8.57
2019-03-04T14:16:26.855Z,11.63
2019-03-04T14:18:56.651Z,14.43
2019-03-04T14:21:26.423Z,10.90
2019-03-04T14:23:56.203Z,7.93
2019-03-04T14:26:27.206Z,8.73
2019-03-04T14:28:57.965Z,7.30
2019-03-04T14:31:27.726Z,9.10
2019-03-04T14:33:57.525Z,28.00
2019-03-04T14:36:27.295Z,16.70
2019-03-04T14:38:57.068Z,23.90
2019-03-04T14:41:26.841Z,13.33
2019-03-04T14:43:56.921Z,25.27
2019-03-04T14:46:26.723Z,22.10
2019-03-04T14:48:56.466Z,12.77
2019-03-04T14:51:26.250Z,17.43
2019-03-04T14:53:55.995Z,11.03
2019-03-04T14:56:28.445Z,8.20
2019-03-04T14:59:10.337Z,8.90
2019-03-04T15:01:29.654Z,9.07
2019-03-04T15:03:59.383Z,7.87
2019-03-04T15:06:29.149Z,7.13
2019-03-04T15:08:58.987Z,10.83
2019-03-04T15:11:29.959Z,8.77
2019-03-04T15:13:59.743Z,9.63
2019-03-04T15:16:29.514Z,10.77
2019-03-04T15:18:59.278Z,5.47
2019-03-04T15:21:29.045Z,7.13
2019-03-04T15:23:58.816Z,6.90
2019-03-04T15:26:28.591Z,8.57
2019-03-04T15:28:59.757Z,6.37
2019-03-04T15:31:29.521Z,5.03
2019-03-04T15:33:59.313Z,5.27
2019-03-04T15:36:29.096Z,4.23
2019-03-04T15:38:58.864Z,5.37
2019-03-04T15:41:28.662Z,7.50
2019-03-04T15:43:58.395Z,8.80
2019-03-04T15:46:28.055Z,11.23
2019-03-04T15:48:57.826Z,6.93
2019-03-04T15:51:28.559Z,5.37
2019-03-04T15:53:58.329Z,9.00
2019-03-04T15:56:29.675Z,11.83
2019-03-04T15:58:59.456Z,13.87
2019-03-04T16:01:30.395Z,6.27
2019-03-04T16:04:00.180Z,12.37
2019-03-04T16:06:29.981Z,13.17
2019-03-04T16:09:00.347Z,6.53
2019-03-04T16:11:32.728Z,9.00
2019-03-04T16:14:02.511Z,8.03
2019-03-04T16:16:34.320Z,20.20
2019-03-04T16:19:06.374Z,16.00
2019-03-04T16:21:36.172Z,29.40
2019-03-04T16:24:05.961Z,20.03
2019-03-04T16:26:35.741Z,18.43
2019-03-04T16:29:05.614Z,7.80
2019-03-04T16:31:37.539Z,11.57
2019-03-04T16:34:07.327Z,6.73
2019-03-04T16:36:40.585Z,10.47
2019-03-04T16:39:10.375Z,17.73
2019-03-04T16:41:40.113Z,18.63
2019-03-04T16:44:09.923Z,18.20
2019-03-04T16:46:39.706Z,16.63
2019-03-04T16:49:09.738Z,13.07
2019-03-04T16:51:40.907Z,7.17
2019-03-04T16:54:10.676Z,21.53
2019-03-04T16:56:40.434Z,19.73
2019-03-04T16:59:10.216Z,18.17
2019-03-04T17:01:39.968Z,17.00
2019-03-04T17:04:10.140Z,15.23
2019-03-04T17:06:39.902Z,15.23
2019-03-04T17:09:17.588Z,10.23
2019-03-04T17:11:48.307Z,20.63
2019-03-04T17:14:18.074Z,7.97
2019-03-04T17:16:47.818Z,25.87
2019-03-04T17:19:17.977Z,23.20
2019-03-04T17:21:48.965Z,16.87
2019-03-04T17:24:18.761Z,11.33
2019-03-04T17:26:48.490Z,20.00
2019-03-04T17:29:18.273Z,23.87
2019-03-04T17:31:48.416Z,29.37
2019-03-04T17:34:18.217Z,28.10
2019-03-04T17:36:48.574Z,24.60
2019-03-04T17:39:18.267Z,13.50
2019-03-04T17:41:49.623Z,15.53
2019-03-04T17:44:23.878Z,12.37
2019-03-04T17:46:54.240Z,23.90
2019-03-04T17:49:24.049Z,10.27
2019-03-04T17:51:53.798Z,5.07
2019-03-04T17:54:23.955Z,3.93
2019-03-04T17:56:55.359Z,4.60
2019-03-04T17:59:25.244Z,5.83
2019-03-04T18:01:55.086Z,4.60
2019-03-04T18:04:25.624Z,3.97
2019-03-04T18:06:59.835Z,5.23
2019-03-04T18:09:29.662Z,11.10
2019-03-04T18:12:00.906Z,11.33
2019-03-04T18:14:32.323Z,7.07
2019-03-04T18:17:02.267Z,14.93
2019-03-04T18:19:32.061Z,5.87
2019-03-04T18:22:01.851Z,22.43
2019-03-04T18:24:31.661Z,12.60
2019-03-04T18:27:03.975Z,11.07
2019-03-04T18:29:53.924Z,4.70
2019-03-04T18:32:46.778Z,5.67
2019-03-04T18:35:22.495Z,16.27
2019-03-04T18:37:58.467Z,13.67
2019-03-04T18:40:44.920Z,14.93
2019-03-04T18:43:18.046Z,17.43
2019-03-04T18:45:57.649Z,41.93
2019-03-04T19:05:00.477Z,15.67
2019-03-04T19:14:37.582Z,3.50
2019-03-04T20:05:24.992Z,3.80
2019-03-04T20:08:07.209Z,3.33
2019-03-04T21:34:35.557Z,3.47
2019-03-04T21:57:52.282Z,5.77
2019-03-04T22:01:09.338Z,4.70
2019-03-04T22:03:32.568Z,3.30
2019-03-04T22:06:02.332Z,1.90
2019-03-04T22:08:32.141Z,4.80
2019-03-04T22:11:03.952Z,5.30
2019-03-04T22:13:35.831Z,2.60
2019-03-04T22:16:08.830Z,3.10
2019-03-04T22:18:39.221Z,2.60
2019-03-04T22:21:16.797Z,2.57
2019-03-04T22:23:43.540Z,2.60
2019-03-04T22:26:13.299Z,2.00
2019-03-04T22:28:43.057Z,1.70
2019-03-04T22:31:14.321Z,2.13
2019-03-04T22:33:45.515Z,1.97
2019-03-04T22:36:15.284Z,2.63
2019-03-04T22:38:45.048Z,2.03
2019-03-04T22:41:14.841Z,2.40
2019-03-04T22:43:44.610Z,1.97
2019-03-04T22:46:14.390Z,2.37
2019-03-04T22:48:45.618Z,2.10
2019-03-04T22:51:15.427Z,2.33
2019-03-04T22:53:45.191Z,3.37
2019-03-04T22:56:14.969Z,2.47
2019-03-04T22:58:44.715Z,2.50
2019-03-04T23:01:19.292Z,2.77
2019-03-04T23:03:49.130Z,2.57
2019-03-04T23:06:39.971Z,2.67
2019-03-04T23:09:12.989Z,2.37
2019-03-04T23:11:45.896Z,2.70
2019-03-04T23:14:21.683Z,2.13
2019-03-04T23:16:51.461Z,2.00
2019-03-04T23:19:21.227Z,2.40
2019-03-04T23:21:51.017Z,3.00
2019-03-04T23:24:20.776Z,2.60
2019-03-04T23:26:50.539Z,2.40
2019-03-04T23:29:20.292Z,3.33
2019-03-04T23:31:50.015Z,2.70
2019-03-04T23:34:20.783Z,2.83
2019-03-04T23:36:50.504Z,3.63
2019-03-04T23:39:20.265Z,2.60
2019-03-04T23:41:50.002Z,3.10
2019-03-04T23:44:19.764Z,3.27
2019-03-04T23:46:49.485Z,3.70
2019-03-04T23:49:19.248Z,3.17
2019-03-04T23:51:48.972Z,3.50
2019-03-04T23:54:18.730Z,2.60
2019-03-04T23:56:48.462Z,3.07
2019-03-04T23:59:18.230Z,3.60
